Time;durP1;ratioP1;P1;durP2;ratioP2;P2;SDS_P1;SDS_P2;PMS_P1;PMS_P2;Temp;Humidity;BMP_temperature;BMP_pressure;BME280_temperature;BME280_humidity;BME280_pressure;Samples;Min_cycle;Max_cycle;Signal;HPM_P1;HPM_P2
2024/03/14 00:00:21;;;;;;;9.90;7.40;;;;;;;;;;4957897;28;21977;-66
2024/03/14 00:02:46;;;;;;;12.77;8.93;;;;;;;;;;4953451;28;20715;-67
2024/03/14 00:05:12;;;;;;;11.50;7.77;;;;;;;;;;4953857;28;20183;-67
2024/03/14 00:07:37;;;;;;;11.57;8.45;;;;;;;;;;4953515;28;20215;-68
2024/03/14 00:10:04;;;;;;;9.73;7.93;;;;;;;;;;4953530;28;20668;-67
2024/03/14 00:12:30;;;;;;;14.23;8.88;;;;;;;;;;4957370;28;20180;-66
2024/03/14 00:14:55;;;;;;;12.13;8.02;;;;;;;;;;4957571;28;20184;-66
2024/03/14 00:17:20;;;;;;;12.93;8.13;;;;;;;;;;4952860;28;20668;-67
2024/03/14 00:19:49;;;;;;;11.97;7.60;;;;;;;;;;4952384;28;20184;-66
2024/03/14 00:22:14;;;;;;;12.93;8.63;;;;;;;;;;4952559;28;20610;-68
2024/03/14 00:24:41;;;;;;;11.97;7.90;;;;;;;;;;4966453;28;20176;-67
2024/03/14 00:27:07;;;;;;;9.53;7.07;;;;;;;;;;4969356;28;20200;-68
2024/03/14 00:29:32;;;;;;;11.53;8.30;;;;;;;;;;4970323;28;20181;-67
2024/03/14 00:31:58;;;;;;;10.10;7.28;;;;;;;;;;4969797;28;20207;-69
2024/03/14 00:34:23;;;;;;;12.57;8.07;;;;;;;;;;4963641;28;20200;-67
2024/03/14 00:36:48;;;;;;;12.77;7.43;;;;;;;;;;4968554;28;20177;-67
2024/03/14 00:39:14;;;;;;;10.95;7.57;;;;;;;;;;4971928;28;20236;-68
2024/03/14 00:41:40;;;;;;;9.90;7.77;;;;;;;;;;4969546;28;20188;-67
2024/03/14 00:44:05;;;;;;;9.43;7.13;;;;;;;;;;4973435;28;20189;-67
2024/03/14 00:46:31;;;;;;;12.43;7.77;;;;;;;;;;4953693;28;20260;-68
2024/03/14 00:48:57;;;;;;;14.30;7.90;;;;;;;;;;4970220;28;20263;-68
2024/03/14 00:51:22;;;;;;;10.83;8.23;;;;;;;;;;4968242;28;20593;-69
2024/03/14 00:53:47;;;;;;;10.45;7.88;;;;;;;;;;4975906;28;20184;-67
2024/03/14 00:56:13;;;;;;;12.03;7.70;;;;;;;;;;4974957;28;20176;-69
2024/03/14 00:58:38;;;;;;;15.37;8.20;;;;;;;;;;4974112;28;20220;-67
2024/03/14 01:01:04;;;;;;;10.63;6.60;;;;;;;;;;4973360;28;20204;-68
2024/03/14 01:03:32;;;;;;;11.50;8.20;;;;;;;;;;4972876;28;20189;-68
2024/03/14 01:05:57;;;;;;;11.83;7.67;;;;;;;;;;4972225;28;20243;-68
2024/03/14 01:08:23;;;;;;;10.67;7.63;;;;;;;;;;4975228;28;20623;-68
2024/03/14 01:10:48;;;;;;;11.10;8.03;;;;;;;;;;4956984;28;20200;-68
2024/03/14 01:13:13;;;;;;;10.10;7.47;;;;;;;;;;4973208;28;20176;-68
2024/03/14 01:15:39;;;;;;;9.60;6.90;;;;;;;;;;4973476;28;20176;-68
2024/03/14 01:18:05;;;;;;;11.83;7.77;;;;;;;;;;4955511;28;20692;-68
2024/03/14 01:20:31;;;;;;;11.27;7.50;;;;;;;;;;4953401;28;20172;-68
2024/03/14 01:22:56;;;;;;;12.30;7.63;;;;;;;;;;4974100;28;20184;-68
2024/03/14 01:25:21;;;;;;;10.03;6.93;;;;;;;;;;4956476;28;20184;-68
2024/03/14 01:27:46;;;;;;;11.50;6.97;;;;;;;;;;4955988;28;20200;-67
2024/03/14 01:30:12;;;;;;;9.13;7.13;;;;;;;;;;4968524;28;20282;-68
2024/03/14 01:32:38;;;;;;;8.70;6.60;;;;;;;;;;4971835;28;20184;-68
2024/03/14 01:35:05;;;;;;;10.13;7.03;;;;;;;;;;4972190;28;20188;-68
2024/03/14 01:37:30;;;;;;;11.10;8.13;;;;;;;;;;4969781;28;20692;-68
2024/03/14 01:39:56;;;;;;;8.87;6.80;;;;;;;;;;4970259;28;20175;-68
2024/03/14 01:42:21;;;;;;;8.83;6.90;;;;;;;;;;4963623;28;20593;-68
2024/03/14 01:44:53;;;;;;;11.67;7.50;;;;;;;;;;4968249;28;20184;-68
2024/03/14 01:47:21;;;;;;;9.10;7.30;;;;;;;;;;4971236;28;20585;-68
2024/03/14 01:49:46;;;;;;;8.97;6.63;;;;;;;;;;4951426;28;20544;-68
2024/03/14 01:52:11;;;;;;;8.70;6.37;;;;;;;;;;4971895;28;20176;-68
2024/03/14 01:54:36;;;;;;;8.50;6.70;;;;;;;;;;4972998;28;20184;-67
2024/03/14 01:57:01;;;;;;;10.00;6.83;;;;;;;;;;4977067;28;20255;-67
2024/03/14 01:59:28;;;;;;;9.73;6.60;;;;;;;;;;4972507;28;20204;-67
2024/03/14 02:01:56;;;;;;;10.30;6.80;;;;;;;;;;4958800;28;20184;-68
2024/03/14 02:04:27;;;;;;;9.83;6.83;;;;;;;;;;4961037;28;20184;-68
2024/03/14 02:06:57;;;;;;;10.27;6.67;;;;;;;;;;4973947;28;20254;-68
2024/03/14 02:09:22;;;;;;;10.83;7.00;;;;;;;;;;4971000;28;20185;-68
2024/03/14 02:11:48;;;;;;;8.83;6.80;;;;;;;;;;4954464;28;20247;-67
2024/03/14 02:14:13;;;;;;;7.83;6.03;;;;;;;;;;4971464;28;20235;-68
2024/03/14 02:16:38;;;;;;;10.27;6.67;;;;;;;;;;4967245;28;20181;-68
2024/03/14 02:19:04;;;;;;;9.07;6.73;;;;;;;;;;4971648;28;20204;-68
2024/03/14 02:21:30;;;;;;;8.23;6.33;;;;;;;;;;4969554;28;20282;-69
2024/03/14 02:23:55;;;;;;;9.97;7.33;;;;;;;;;;4973422;28;20233;-67
2024/03/14 02:26:21;;;;;;;8.50;6.57;;;;;;;;;;4972372;28;20212;-67
2024/03/14 02:28:47;;;;;;;9.83;6.53;;;;;;;;;;4966211;28;20696;-68
2024/03/14 02:31:12;;;;;;;12.40;6.77;;;;;;;;;;4967785;28;20214;-67
2024/03/14 02:33:37;;;;;;;10.00;6.43;;;;;;;;;;4954082;28;20228;-68
2024/03/14 02:36:02;;;;;;;13.77;6.63;;;;;;;;;;4971856;28;20227;-68
2024/03/14 02:38:27;;;;;;;10.10;6.83;;;;;;;;;;4971828;28;20220;-68
2024/03/14 02:40:53;;;;;;;9.93;6.33;;;;;;;;;;4968337;28;20224;-67
2024/03/14 02:43:18;;;;;;;11.50;7.20;;;;;;;;;;4970331;28;20195;-66
2024/03/14 02:45:43;;;;;;;9.63;6.40;;;;;;;;;;4950729;28;20184;-67
2024/03/14 02:48:09;;;;;;;11.63;7.70;;;;;;;;;;4966387;28;20217;-67
2024/03/14 02:50:34;;;;;;;11.00;7.27;;;;;;;;;;4972105;28;20734;-67
2024/03/14 02:52:59;;;;;;;9.63;7.53;;;;;;;;;;4954528;28;20279;-67
2024/03/14 02:55:25;;;;;;;11.50;7.17;;;;;;;;;;4970899;28;20566;-67
2024/03/14 02:57:50;;;;;;;10.70;7.97;;;;;;;;;;4970407;28;20231;-67
2024/03/14 03:00:18;;;;;;;9.40;6.80;;;;;;;;;;4967196;28;20192;-68
2024/03/14 03:02:46;;;;;;;10.33;7.90;;;;;;;;;;4969088;28;20793;-67
2024/03/14 03:05:11;;;;;;;12.53;8.53;;;;;;;;;;4954148;28;20192;-67
2024/03/14 03:07:37;;;;;;;16.00;7.90;;;;;;;;;;4968942;28;20262;-66
2024/03/14 03:10:05;;;;;;;11.53;8.00;;;;;;;;;;4968781;28;20188;-67
2024/03/14 03:12:31;;;;;;;11.20;8.33;;;;;;;;;;4972668;28;20263;-68
2024/03/14 03:14:56;;;;;;;12.27;8.90;;;;;;;;;;4975276;28;20247;-67
2024/03/14 03:17:22;;;;;;;10.50;8.47;;;;;;;;;;4969875;28;20351;-68
2024/03/14 03:19:49;;;;;;;12.23;8.73;;;;;;;;;;4969035;28;20184;-68
2024/03/14 03:22:14;;;;;;;15.33;9.43;;;;;;;;;;4953979;28;20569;-68
2024/03/14 03:24:40;;;;;;;12.43;9.10;;;;;;;;;;4965098;28;20189;-66
2024/03/14 03:27:13;;;;;;;12.57;9.33;;;;;;;;;;4969075;28;20292;-68
2024/03/14 03:29:38;;;;;;;13.57;9.57;;;;;;;;;;4969386;28;20538;-68
2024/03/14 03:32:03;;;;;;;15.23;9.40;;;;;;;;;;4968956;28;20214;-68
2024/03/14 03:34:29;;;;;;;15.53;10.37;;;;;;;;;;4969860;28;20186;-67
2024/03/14 03:36:54;;;;;;;11.40;8.70;;;;;;;;;;4971831;28;20637;-68
2024/03/14 03:39:19;;;;;;;13.27;9.07;;;;;;;;;;4968484;28;20180;-67
2024/03/14 03:41:46;;;;;;;14.93;9.40;;;;;;;;;;4965218;28;20184;-67
2024/03/14 03:44:11;;;;;;;14.60;10.30;;;;;;;;;;4952256;28;20180;-67
2024/03/14 03:46:41;;;;;;;15.77;10.73;;;;;;;;;;4967649;28;20210;-69
2024/03/14 03:49:07;;;;;;;19.67;10.97;;;;;;;;;;4964153;28;20235;-68
2024/03/14 03:51:33;;;;;;;13.43;9.43;;;;;;;;;;4953303;28;20203;-67
2024/03/14 03:53:58;;;;;;;13.07;9.53;;;;;;;;;;4971298;28;20182;-68
2024/03/14 03:56:24;;;;;;;15.17;10.10;;;;;;;;;;4967406;28;20180;-68
2024/03/14 03:58:49;;;;;;;16.37;10.30;;;;;;;;;;4970171;28;20196;-69
2024/03/14 04:01:20;;;;;;;16.83;9.83;;;;;;;;;;4973380;28;20271;-69
2024/03/14 04:03:45;;;;;;;14.73;10.40;;;;;;;;;;4973519;28;20192;-68
2024/03/14 04:06:15;;;;;;;14.97;10.63;;;;;;;;;;4973878;28;20180;-67
2024/03/14 04:08:40;;;;;;;17.03;11.23;;;;;;;;;;4974492;28;20240;-67
2024/03/14 04:11:09;;;;;;;17.63;12.30;;;;;;;;;;4973460;28;20612;-67
2024/03/14 04:13:34;;;;;;;19.43;12.30;;;;;;;;;;4972696;28;20176;-68
2024/03/14 04:16:06;;;;;;;18.23;12.37;;;;;;;;;;4972555;28;20180;-67
2024/03/14 04:18:31;;;;;;;17.20;10.90;;;;;;;;;;4971517;28;20262;-67
2024/03/14 04:20:56;;;;;;;21.03;11.80;;;;;;;;;;4974394;28;20267;-68
2024/03/14 04:23:22;;;;;;;20.53;13.63;;;;;;;;;;4977437;28;20196;-66
2024/03/14 04:25:47;;;;;;;17.03;12.13;;;;;;;;;;4974025;28;20181;-67
2024/03/14 04:28:13;;;;;;;19.60;12.83;;;;;;;;;;4974218;28;20210;-68
2024/03/14 04:30:38;;;;;;;26.10;13.13;;;;;;;;;;4972365;28;20754;-68
2024/03/14 04:33:03;;;;;;;22.83;12.57;;;;;;;;;;4974402;28;20207;-68
2024/03/14 04:35:31;;;;;;;22.13;13.20;;;;;;;;;;4971927;28;20176;-68
2024/03/14 04:37:56;;;;;;;20.97;13.83;;;;;;;;;;4950578;28;20212;-68
2024/03/14 04:40:22;;;;;;;22.43;13.70;;;;;;;;;;4973948;28;20188;-66
2024/03/14 04:42:51;;;;;;;22.27;13.87;;;;;;;;;;4974123;28;20188;-67
2024/03/14 04:45:17;;;;;;;23.67;13.93;;;;;;;;;;4973650;28;20255;-67
2024/03/14 04:47:43;;;;;;;22.23;14.47;;;;;;;;;;4970136;28;20283;-66
2024/03/14 04:50:09;;;;;;;19.10;12.87;;;;;;;;;;4969791;28;20863;-68
2024/03/14 04:52:37;;;;;;;23.17;13.03;;;;;;;;;;4955968;28;20468;-67
2024/03/14 04:55:08;;;;;;;21.97;12.63;;;;;;;;;;4974144;28;20176;-67
2024/03/14 04:57:33;;;;;;;21.93;13.23;;;;;;;;;;4970055;28;20200;-68
2024/03/14 04:59:59;;;;;;;21.73;13.73;;;;;;;;;;4973927;28;20192;-68
2024/03/14 05:02:24;;;;;;;26.53;15.20;;;;;;;;;;4973709;28;20200;-68
2024/03/14 05:04:49;;;;;;;22.07;14.40;;;;;;;;;;4972494;28;20185;-67
2024/03/14 05:07:14;;;;;;;24.83;14.90;;;;;;;;;;4956789;28;20191;-68
2024/03/14 05:09:39;;;;;;;26.80;14.37;;;;;;;;;;4966732;28;20187;-66
2024/03/14 05:12:07;;;;;;;23.47;14.93;;;;;;;;;;4971591;28;20200;-68
2024/03/14 05:14:32;;;;;;;25.13;14.80;;;;;;;;;;4971917;28;20173;-68
2024/03/14 05:16:57;;;;;;;23.83;14.33;;;;;;;;;;4972011;28;20223;-68
2024/03/14 05:19:23;;;;;;;31.33;16.30;;;;;;;;;;4971656;28;20239;-68
2024/03/14 05:21:48;;;;;;;25.27;13.90;;;;;;;;;;4973858;28;20692;-68
2024/03/14 05:24:16;;;;;;;28.53;14.57;;;;;;;;;;4969159;28;20187;-68
2024/03/14 05:26:42;;;;;;;25.17;14.70;;;;;;;;;;4972175;28;20271;-68
2024/03/14 05:29:07;;;;;;;27.73;15.00;;;;;;;;;;4971513;28;20291;-68
2024/03/14 05:31:34;;;;;;;27.40;16.07;;;;;;;;;;4973254;28;20193;-68
2024/03/14 05:33:59;;;;;;;27.77;14.77;;;;;;;;;;4980068;28;20260;-68
2024/03/14 05:36:25;;;;;;;26.13;15.20;;;;;;;;;;4979011;28;20200;-67
2024/03/14 05:38:50;;;;;;;29.63;15.67;;;;;;;;;;4971644;28;20627;-68
2024/03/14 05:41:15;;;;;;;27.70;14.97;;;;;;;;;;4972401;28;20576;-68
2024/03/14 05:43:45;;;;;;;28.47;14.60;;;;;;;;;;4971149;28;20188;-68
2024/03/14 05:46:10;;;;;;;28.83;15.97;;;;;;;;;;4971685;28;20184;-68
2024/03/14 05:48:35;;;;;;;25.87;14.77;;;;;;;;;;4968107;28;20238;-68
2024/03/14 05:51:00;;;;;;;28.30;14.90;;;;;;;;;;4971651;28;20204;-68
2024/03/14 05:53:30;;;;;;;28.03;14.43;;;;;;;;;;4972973;28;20177;-67
2024/03/14 05:55:56;;;;;;;29.37;16.03;;;;;;;;;;4954244;28;20559;-67
2024/03/14 05:58:21;;;;;;;28.30;15.10;;;;;;;;;;4950246;28;20196;-67
2024/03/14 06:00:46;;;;;;;23.33;14.67;;;;;;;;;;4970922;28;20188;-67
2024/03/14 06:03:13;;;;;;;22.87;14.10;;;;;;;;;;4970591;28;20188;-68
2024/03/14 06:05:38;;;;;;;32.23;14.33;;;;;;;;;;4972133;28;20559;-66
2024/03/14 06:08:03;;;;;;;31.03;15.30;;;;;;;;;;4972491;28;20207;-69
2024/03/14 06:10:29;;;;;;;30.20;15.47;;;;;;;;;;4952711;28;20212;-68
2024/03/14 06:12:54;;;;;;;26.17;14.97;;;;;;;;;;4971033;28;20239;-69
2024/03/14 06:15:20;;;;;;;30.70;16.00;;;;;;;;;;4967860;28;20180;-69
2024/03/14 06:17:50;;;;;;;27.43;14.27;;;;;;;;;;4951831;28;20684;-68
2024/03/14 06:20:18;;;;;;;34.63;14.93;;;;;;;;;;4968806;28;20184;-69
2024/03/14 06:22:44;;;;;;;32.20;15.90;;;;;;;;;;4972179;28;20586;-69
2024/03/14 06:25:10;;;;;;;29.17;15.90;;;;;;;;;;4973727;28;20185;-69
2024/03/14 06:27:36;;;;;;;30.30;14.57;;;;;;;;;;4964921;28;20210;-69
2024/03/14 06:30:03;;;;;;;29.33;15.40;;;;;;;;;;4966096;28;20176;-68
2024/03/14 06:32:29;;;;;;;27.93;15.47;;;;;;;;;;4962626;28;20702;-69
2024/03/14 06:34:54;;;;;;;28.23;14.90;;;;;;;;;;4972621;28;20267;-67
2024/03/14 06:37:19;;;;;;;28.97;15.53;;;;;;;;;;4973786;28;20216;-67
2024/03/14 06:39:47;;;;;;;31.17;16.60;;;;;;;;;;4972310;28;20188;-67
2024/03/14 06:42:12;;;;;;;25.70;14.93;;;;;;;;;;4972118;28;20187;-67
2024/03/14 06:44:38;;;;;;;28.97;14.70;;;;;;;;;;4983723;28;20184;-67
2024/03/14 06:47:03;;;;;;;28.07;14.83;;;;;;;;;;4977559;28;20181;-67
2024/03/14 06:49:29;;;;;;;28.40;15.40;;;;;;;;;;4972307;28;20187;-67
2024/03/14 06:51:55;;;;;;;27.43;14.63;;;;;;;;;;4954833;28;20531;-68
2024/03/14 06:54:21;;;;;;;23.27;14.53;;;;;;;;;;4971815;28;20272;-67
2024/03/14 06:56:46;;;;;;;25.23;14.20;;;;;;;;;;4948006;28;20274;-68
2024/03/14 06:59:14;;;;;;;26.90;14.60;;;;;;;;;;4972143;28;20183;-67
2024/03/14 07:01:40;;;;;;;31.47;14.73;;;;;;;;;;4966784;28;20180;-67
2024/03/14 07:04:05;;;;;;;28.00;14.47;;;;;;;;;;4968525;28;20195;-67
2024/03/14 07:06:33;;;;;;;24.80;14.17;;;;;;;;;;4967179;28;20180;-68
2024/03/14 07:09:00;;;;;;;26.27;13.43;;;;;;;;;;4971707;28;20196;-68
2024/03/14 07:11:25;;;;;;;22.00;12.90;;;;;;;;;;4969125;28;20218;-68
